createdAt,value
2023-03-24T00:00:11.670Z,14.32
2023-03-24T00:02:42.076Z,14.28
2023-03-24T00:05:11.850Z,14.27
2023-03-24T00:07:39.772Z,14.29
2023-03-24T00:10:09.709Z,14.30
2023-03-24T00:12:38.474Z,14.26
2023-03-24T00:15:07.676Z,14.33
2023-03-24T00:17:36.021Z,14.40
2023-03-24T00:20:11.113Z,14.35
2023-03-24T00:22:42.245Z,14.34
2023-03-24T00:25:12.017Z,14.46
2023-03-24T00:27:39.560Z,14.38
2023-03-24T00:30:10.025Z,14.41
2023-03-24T00:32:38.753Z,14.36
2023-03-24T00:35:11.118Z,14.32
2023-03-24T00:37:39.370Z,14.35
2023-03-24T00:40:13.924Z,14.57
2023-03-24T00:42:41.472Z,14.51
2023-03-24T00:45:09.389Z,14.52
2023-03-24T00:47:39.288Z,14.57
2023-03-24T00:50:08.970Z,14.45
2023-03-24T00:52:36.008Z,14.41
2023-03-24T00:55:05.515Z,14.43
2023-03-24T00:57:35.991Z,14.64
2023-03-24T01:00:16.818Z,14.58
2023-03-24T01:02:46.478Z,14.61
2023-03-24T01:05:14.986Z,14.52
2023-03-24T01:07:43.282Z,14.53
2023-03-24T01:10:13.445Z,14.42
2023-03-24T01:12:40.884Z,14.48
2023-03-24T01:15:21.942Z,14.50
2023-03-24T01:17:48.773Z,14.49
2023-03-24T01:20:16.152Z,14.49
2023-03-24T01:22:44.863Z,14.48
2023-03-24T01:25:16.863Z,14.42
2023-03-24T01:27:45.359Z,14.35
2023-03-24T01:30:17.914Z,14.22
2023-03-24T01:32:44.599Z,14.28
2023-03-24T01:35:12.200Z,14.33
2023-03-24T01:37:39.441Z,14.34
2023-03-24T01:40:09.708Z,14.30
2023-03-24T01:42:37.710Z,14.27
2023-03-24T01:45:38.628Z,14.21
2023-03-24T01:48:14.545Z,14.29
2023-03-24T01:50:46.978Z,14.19
2023-03-24T01:53:15.390Z,14.22
2023-03-24T01:55:45.420Z,14.20
2023-03-24T01:58:14.418Z,14.30
2023-03-24T02:00:52.662Z,14.21
2023-03-24T02:03:40.179Z,14.39
2023-03-24T02:06:08.799Z,14.29
2023-03-24T02:08:49.937Z,14.37
2023-03-24T02:11:16.735Z,14.30
2023-03-24T02:13:50.818Z,14.26
2023-03-24T02:16:53.266Z,14.21
2023-03-24T02:19:44.866Z,14.11
2023-03-24T02:22:20.765Z,14.26
2023-03-24T02:25:09.221Z,14.35
2023-03-24T02:27:58.185Z,14.35
2023-03-24T02:30:43.753Z,14.35
2023-03-24T02:33:49.323Z,14.26
2023-03-24T02:36:38.854Z,14.23
2023-03-24T02:39:11.456Z,14.37
2023-03-24T02:41:53.806Z,14.26
2023-03-24T02:44:50.171Z,14.33
2023-03-24T02:47:29.224Z,14.40
2023-03-24T02:50:31.740Z,14.36
2023-03-24T02:53:13.963Z,14.41
2023-03-24T02:56:10.318Z,14.50
2023-03-24T02:58:43.550Z,14.49
2023-03-24T03:01:19.136Z,14.51
2023-03-24T03:04:08.960Z,14.42
2023-03-24T03:06:42.725Z,14.53
2023-03-24T03:09:16.247Z,14.61
2023-03-24T03:11:47.629Z,14.72
2023-03-24T03:14:44.139Z,14.58
2023-03-24T03:17:18.722Z,14.58
2023-03-24T03:19:50.240Z,14.61
2023-03-24T03:22:23.138Z,14.71
2023-03-24T03:24:55.217Z,14.52
2023-03-24T03:27:29.326Z,14.58
2023-03-24T03:30:04.434Z,14.66
2023-03-24T03:32:34.820Z,14.65
2023-03-24T03:35:08.110Z,14.67
2023-03-24T03:37:51.209Z,14.68
2023-03-24T03:40:23.325Z,14.71
2023-03-24T03:42:55.880Z,14.69
2023-03-24T03:45:22.838Z,14.73
2023-03-24T03:47:50.767Z,14.63
2023-03-24T03:50:17.846Z,14.67
2023-03-24T03:52:44.728Z,14.71
2023-03-24T03:55:12.501Z,14.59
2023-03-24T03:57:41.321Z,14.63
2023-03-24T04:00:16.728Z,14.66
2023-03-24T04:03:14.607Z,14.57
2023-03-24T04:06:04.874Z,14.65
2023-03-24T04:08:53.112Z,14.65
2023-03-24T04:11:40.618Z,14.62
2023-03-24T04:14:35.571Z,14.64
2023-03-24T04:17:46.017Z,14.52
2023-03-24T04:20:32.746Z,14.55
2023-03-24T04:23:14.823Z,14.59
2023-03-24T04:25:58.556Z,14.56
2023-03-24T04:28:52.194Z,14.54
2023-03-24T04:31:34.054Z,14.58
2023-03-24T04:34:12.131Z,14.62
2023-03-24T04:37:04.057Z,14.55
2023-03-24T04:39:46.099Z,14.48
2023-03-24T04:42:23.435Z,14.43
2023-03-24T04:44:51.652Z,14.41
2023-03-24T04:47:53.604Z,14.37
2023-03-24T04:50:40.746Z,14.35
2023-03-24T04:53:13.393Z,14.32
2023-03-24T04:55:49.665Z,14.36
2023-03-24T04:58:23.188Z,14.33
2023-03-24T05:01:17.328Z,14.33
2023-03-24T05:03:55.272Z,14.27
2023-03-24T05:06:22.034Z,14.25
2023-03-24T05:08:49.025Z,14.19
2023-03-24T05:11:16.170Z,14.17
2023-03-24T05:13:49.494Z,14.18
2023-03-24T05:16:16.304Z,14.10
2023-03-24T05:18:51.684Z,14.09
2023-03-24T05:21:20.538Z,14.05
2023-03-24T05:23:47.354Z,13.88
2023-03-24T05:26:14.123Z,13.90
2023-03-24T05:28:58.546Z,13.83
2023-03-24T05:31:25.531Z,13.86
2023-03-24T05:34:14.622Z,13.86
2023-03-24T05:36:50.727Z,13.93
2023-03-24T05:39:20.822Z,13.92
2023-03-24T05:41:56.980Z,13.96
2023-03-24T05:44:23.742Z,14.05
2023-03-24T05:47:16.095Z,14.06
2023-03-24T05:49:43.412Z,14.12
2023-03-24T05:52:11.795Z,14.27
2023-03-24T05:54:40.816Z,14.27
2023-03-24T05:57:16.630Z,14.35
2023-03-24T06:00:17.168Z,14.14
2023-03-24T06:02:56.857Z,14.05
2023-03-24T06:05:27.907Z,14.03
2023-03-24T06:07:58.476Z,14.05
2023-03-24T06:10:27.843Z,13.87
2023-03-24T06:12:56.008Z,13.99
2023-03-24T06:15:27.945Z,13.84
2023-03-24T06:18:01.048Z,13.76
2023-03-24T06:20:33.792Z,13.80
2023-03-24T06:23:04.665Z,13.76
2023-03-24T06:25:38.806Z,13.78
2023-03-24T06:28:22.700Z,13.81
2023-03-24T06:30:50.318Z,13.80
2023-03-24T06:33:25.841Z,13.94
2023-03-24T06:35:54.230Z,13.80
2023-03-24T06:38:22.205Z,13.77
2023-03-24T06:40:49.097Z,13.84
2023-03-24T06:43:16.119Z,13.84
2023-03-24T06:45:45.132Z,13.75
2023-03-24T06:48:19.048Z,13.77
2023-03-24T06:50:46.366Z,13.73
2023-03-24T06:53:13.806Z,13.71
2023-03-24T06:55:41.666Z,13.79
2023-03-24T06:58:10.402Z,13.76
2023-03-24T07:00:55.256Z,13.77
2023-03-24T07:03:43.310Z,13.86
2023-03-24T07:06:15.876Z,13.99
2023-03-24T07:08:44.640Z,14.02
2023-03-24T07:11:12.043Z,13.98
2023-03-24T07:13:47.448Z,14.00
2023-03-24T07:16:16.174Z,13.95
2023-03-24T07:18:43.536Z,14.05
2023-03-24T07:21:10.303Z,14.02
2023-03-24T07:23:37.350Z,13.94
2023-03-24T07:26:20.584Z,13.99
2023-03-24T07:28:47.607Z,13.99
2023-03-24T07:31:24.623Z,13.99
2023-03-24T07:34:01.045Z,13.99
2023-03-24T07:36:28.812Z,14.07
2023-03-24T07:38:57.397Z,13.96
2023-03-24T07:41:31.291Z,14.06
2023-03-24T07:44:02.728Z,14.04
2023-03-24T07:46:48.619Z,14.04
2023-03-24T07:49:19.411Z,14.02
2023-03-24T07:52:07.400Z,14.01
2023-03-24T07:54:39.992Z,14.00
2023-03-24T07:57:08.949Z,13.88
2023-03-24T07:59:37.871Z,13.88
2023-03-24T08:02:31.097Z,14.07
2023-03-24T08:05:13.772Z,13.96
2023-03-24T08:07:58.068Z,13.94
2023-03-24T08:10:27.352Z,14.04
2023-03-24T08:12:54.919Z,14.32
2023-03-24T08:15:22.262Z,14.31
2023-03-24T08:17:50.239Z,14.26
2023-03-24T08:20:19.408Z,14.45
2023-03-24T08:22:53.986Z,14.49
2023-03-24T08:25:22.589Z,14.37
2023-03-24T08:27:49.233Z,14.51
2023-03-24T08:30:20.045Z,14.50
2023-03-24T08:32:49.724Z,14.59
2023-03-24T08:35:19.317Z,14.30
2023-03-24T08:37:46.757Z,14.35
2023-03-24T08:40:19.072Z,14.34
2023-03-24T08:42:52.893Z,14.51
2023-03-24T08:45:21.504Z,14.42
2023-03-24T08:47:50.378Z,14.59
2023-03-24T08:50:20.253Z,14.49
2023-03-24T08:52:48.109Z,14.53
2023-03-24T08:55:16.458Z,14.54
2023-03-24T08:57:43.364Z,14.42
2023-03-24T09:00:14.702Z,14.51
2023-03-24T09:02:49.360Z,14.45
2023-03-24T09:05:22.742Z,14.59
2023-03-24T09:07:53.692Z,14.81
2023-03-24T09:10:22.492Z,14.44
2023-03-24T09:12:49.946Z,14.60
2023-03-24T09:15:17.004Z,14.60
2023-03-24T09:17:44.283Z,14.31
2023-03-24T09:20:14.402Z,14.24
2023-03-24T09:22:43.932Z,14.07
2023-03-24T09:25:13.671Z,14.03
2023-03-24T09:27:40.365Z,13.88
2023-03-24T09:30:09.531Z,13.95
2023-03-24T09:32:36.948Z,13.94
2023-03-24T09:35:05.259Z,13.96
2023-03-24T09:37:32.611Z,14.13
2023-03-24T09:40:01.377Z,14.08
2023-03-24T09:42:33.372Z,13.99
2023-03-24T09:45:24.012Z,14.01
2023-03-24T09:47:57.961Z,14.24
2023-03-24T09:50:33.047Z,14.21
2023-03-24T09:53:07.193Z,14.06
2023-03-24T09:55:39.222Z,14.02
2023-03-24T09:58:08.375Z,14.30
2023-03-24T10:00:36.699Z,14.53
2023-03-24T10:03:23.656Z,14.46
2023-03-24T10:05:58.277Z,14.64
2023-03-24T10:08:34.149Z,14.70
2023-03-24T10:11:43.121Z,14.76
2023-03-24T10:14:21.448Z,14.73
2023-03-24T10:17:02.731Z,14.76
2023-03-24T10:20:01.335Z,14.76
2023-03-24T10:22:42.543Z,14.76
2023-03-24T10:25:26.804Z,14.80
2023-03-24T10:28:00.528Z,14.78
2023-03-24T10:30:34.680Z,14.84
2023-03-24T10:33:02.158Z,14.73
2023-03-24T10:35:42.057Z,14.72
2023-03-24T10:38:20.934Z,14.58
2023-03-24T10:40:49.368Z,14.73
2023-03-24T10:43:18.813Z,15.06
2023-03-24T10:45:50.266Z,14.69
2023-03-24T10:48:40.491Z,14.79
2023-03-24T10:51:13.769Z,14.81
2023-03-24T10:53:40.733Z,14.91
2023-03-24T10:56:08.000Z,14.83
2023-03-24T10:58:43.021Z,14.76
2023-03-24T11:01:25.158Z,14.41
2023-03-24T11:03:52.135Z,13.82
2023-03-24T11:06:21.057Z,13.74
2023-03-24T11:08:47.997Z,13.66
2023-03-24T11:11:28.138Z,13.42
2023-03-24T11:13:58.343Z,13.66
2023-03-24T11:16:43.948Z,13.73
2023-03-24T11:19:32.605Z,13.80
2023-03-24T11:22:04.032Z,13.91
2023-03-24T11:24:34.788Z,14.06
2023-03-24T11:27:03.123Z,14.34
2023-03-24T11:29:33.592Z,14.21
2023-03-24T11:32:11.405Z,14.25
2023-03-24T11:34:42.325Z,14.24
2023-03-24T11:37:15.844Z,14.15
2023-03-24T11:39:44.177Z,13.99
2023-03-24T11:42:10.956Z,14.14
2023-03-24T11:44:37.997Z,14.17
2023-03-24T11:47:24.332Z,14.40
2023-03-24T11:50:18.757Z,14.42
2023-03-24T11:52:53.726Z,14.60
2023-03-24T11:55:43.758Z,14.60
2023-03-24T11:58:43.903Z,14.35
2023-03-24T12:01:19.794Z,14.50
2023-03-24T12:04:11.318Z,14.76
2023-03-24T12:07:12.609Z,14.90
2023-03-24T12:10:06.254Z,14.98
2023-03-24T12:13:37.982Z,14.61
2023-03-24T12:16:26.314Z,14.49
2023-03-24T12:19:15.004Z,14.64
2023-03-24T12:22:23.031Z,14.76
2023-03-24T12:25:06.257Z,14.84
2023-03-24T12:27:43.048Z,14.81
2023-03-24T12:30:25.808Z,15.17
2023-03-24T12:33:11.112Z,15.35
2023-03-24T12:35:55.317Z,15.45
2023-03-24T12:38:30.582Z,15.47
2023-03-24T12:41:12.669Z,15.33
2023-03-24T12:44:16.400Z,15.47
2023-03-24T12:46:58.960Z,15.62
2023-03-24T12:49:41.937Z,15.58
2023-03-24T12:52:28.194Z,15.83
2023-03-24T12:55:08.106Z,15.79
2023-03-24T12:57:49.834Z,15.76
2023-03-24T13:00:31.206Z,15.82
2023-03-24T13:03:01.988Z,15.86
2023-03-24T13:05:36.768Z,15.82
2023-03-24T13:08:11.618Z,15.81
2023-03-24T13:10:42.111Z,16.07
2023-03-24T13:13:31.928Z,16.15
2023-03-24T13:16:03.297Z,16.31
2023-03-24T13:18:39.086Z,16.34
2023-03-24T13:21:11.764Z,16.11
2023-03-24T13:24:09.376Z,16.32
2023-03-24T13:26:39.966Z,16.31
2023-03-24T13:29:38.389Z,16.37
2023-03-24T13:32:25.490Z,16.24
2023-03-24T13:35:29.921Z,16.43
2023-03-24T13:38:04.423Z,16.39
2023-03-24T13:40:32.586Z,16.20
2023-03-24T13:43:09.875Z,16.13
2023-03-24T13:45:43.173Z,16.19
2023-03-24T13:48:09.786Z,16.18
2023-03-24T13:50:42.645Z,16.36
2023-03-24T13:53:16.425Z,16.76
2023-03-24T13:55:51.087Z,16.79
2023-03-24T13:58:43.842Z,16.89
2023-03-24T14:01:11.006Z,16.96
2023-03-24T14:03:43.251Z,17.11
2023-03-24T14:06:11.602Z,17.13
2023-03-24T14:08:53.207Z,17.26
2023-03-24T14:11:43.044Z,17.53
2023-03-24T14:14:15.705Z,17.73
2023-03-24T14:17:02.219Z,17.87
2023-03-24T14:19:39.142Z,17.88
2023-03-24T14:22:13.398Z,17.84
2023-03-24T14:24:42.632Z,17.96
2023-03-24T14:27:30.609Z,18.19
2023-03-24T14:30:01.910Z,17.99
2023-03-24T14:32:30.272Z,17.89
2023-03-24T14:34:59.122Z,17.97
2023-03-24T14:37:29.206Z,17.71
2023-03-24T14:39:58.064Z,18.25
2023-03-24T14:42:33.789Z,18.40
2023-03-24T14:45:41.550Z,18.44
2023-03-24T14:48:56.437Z,18.02
2023-03-24T14:51:39.404Z,17.68
2023-03-24T14:54:14.136Z,17.74
2023-03-24T14:56:45.473Z,17.84
2023-03-24T14:59:21.938Z,17.55
2023-03-24T15:01:56.610Z,17.21
2023-03-24T15:04:23.490Z,17.15
2023-03-24T15:06:51.885Z,17.47
2023-03-24T15:09:18.756Z,17.54
2023-03-24T15:11:47.927Z,17.34
2023-03-24T15:14:24.320Z,17.24
2023-03-24T15:17:04.422Z,17.11
2023-03-24T15:19:31.465Z,17.16
2023-03-24T15:22:11.572Z,17.30
2023-03-24T15:24:41.515Z,17.47
2023-03-24T15:27:08.183Z,17.51
2023-03-24T15:29:36.822Z,17.47
2023-03-24T15:32:04.746Z,17.49
2023-03-24T15:34:46.258Z,17.46
2023-03-24T15:37:22.122Z,17.42
2023-03-24T15:40:01.865Z,17.43
2023-03-24T15:42:44.788Z,17.23
2023-03-24T15:45:28.593Z,17.23
2023-03-24T15:47:56.237Z,17.16
2023-03-24T15:50:37.590Z,16.96
2023-03-24T15:53:26.655Z,17.17
2023-03-24T15:56:23.372Z,16.99
2023-03-24T15:58:52.790Z,17.26
2023-03-24T16:01:35.892Z,17.30
2023-03-24T16:04:11.854Z,17.12
2023-03-24T16:06:42.988Z,17.19
2023-03-24T16:09:14.357Z,17.07
2023-03-24T16:11:42.767Z,17.15
2023-03-24T16:14:29.866Z,17.16
2023-03-24T16:16:59.190Z,17.17
2023-03-24T16:19:26.209Z,17.19
2023-03-24T16:21:54.863Z,17.02
2023-03-24T16:24:22.529Z,17.13
2023-03-24T16:26:50.106Z,17.26
2023-03-24T16:29:22.680Z,17.14
2023-03-24T16:31:51.949Z,17.16
2023-03-24T16:34:21.146Z,17.01
2023-03-24T16:36:49.747Z,16.74
2023-03-24T16:39:19.234Z,16.78
2023-03-24T16:41:46.367Z,16.82
2023-03-24T16:44:13.595Z,16.74
2023-03-24T16:46:41.059Z,16.70
2023-03-24T16:49:11.510Z,16.66
2023-03-24T16:51:38.162Z,16.69
2023-03-24T16:54:05.553Z,16.59
2023-03-24T16:56:32.161Z,16.61
2023-03-24T16:58:59.149Z,16.51
2023-03-24T17:01:33.374Z,16.40
2023-03-24T17:04:02.916Z,16.41
2023-03-24T17:06:32.583Z,16.48
2023-03-24T17:08:59.959Z,16.47
2023-03-24T17:11:36.655Z,16.38
2023-03-24T17:14:04.677Z,16.35
2023-03-24T17:16:36.350Z,16.53
2023-03-24T17:19:04.963Z,16.33
2023-03-24T17:21:34.384Z,16.23
2023-03-24T17:24:02.095Z,16.23
2023-03-24T17:26:30.849Z,16.17
2023-03-24T17:28:58.777Z,16.18
2023-03-24T17:31:25.834Z,16.09
2023-03-24T17:33:52.564Z,16.02
2023-03-24T17:36:19.318Z,15.90
2023-03-24T17:38:48.962Z,16.00
2023-03-24T17:41:15.955Z,15.97
2023-03-24T17:43:47.787Z,16.12
2023-03-24T17:46:15.362Z,15.93
2023-03-24T17:48:44.889Z,15.83
2023-03-24T17:51:12.569Z,15.72
2023-03-24T17:53:39.313Z,15.73
2023-03-24T17:56:07.043Z,15.79
2023-03-24T17:58:35.473Z,15.77
2023-03-24T18:01:08.560Z,15.72
2023-03-24T18:03:37.957Z,15.64
2023-03-24T18:06:11.285Z,15.67
2023-03-24T18:08:39.023Z,15.64
2023-03-24T18:11:07.866Z,15.70
2023-03-24T18:13:34.849Z,15.56
2023-03-24T18:16:13.227Z,15.49
2023-03-24T18:18:47.501Z,15.43
2023-03-24T18:21:15.485Z,15.45
2023-03-24T18:23:42.529Z,15.48
2023-03-24T18:26:09.463Z,15.38
2023-03-24T18:28:37.968Z,15.37
2023-03-24T18:31:20.211Z,15.47
2023-03-24T18:33:57.555Z,15.39
2023-03-24T18:36:29.533Z,15.30
2023-03-24T18:39:09.722Z,15.27
2023-03-24T18:41:37.562Z,15.12
2023-03-24T18:44:07.124Z,15.07
2023-03-24T18:46:36.572Z,15.05
2023-03-24T18:49:04.084Z,15.15
2023-03-24T18:51:32.989Z,15.06
2023-03-24T18:53:59.796Z,15.13
2023-03-24T18:56:26.691Z,14.99
2023-03-24T18:58:53.585Z,14.70
2023-03-24T19:01:24.855Z,14.63
2023-03-24T19:03:52.701Z,14.57
2023-03-24T19:06:20.106Z,14.67
2023-03-24T19:08:51.749Z,15.07
2023-03-24T19:11:19.046Z,15.00
2023-03-24T19:13:49.610Z,15.03
2023-03-24T19:16:18.108Z,15.07
2023-03-24T19:18:45.810Z,15.23
2023-03-24T19:21:12.933Z,15.44
2023-03-24T19:23:40.003Z,15.68
2023-03-24T19:26:07.181Z,15.84
2023-03-24T19:28:35.552Z,15.19
2023-03-24T19:31:09.546Z,15.06
2023-03-24T19:33:37.398Z,14.75
2023-03-24T19:36:06.360Z,14.72
2023-03-24T19:38:33.566Z,14.72
2023-03-24T19:41:09.098Z,14.58
2023-03-24T19:43:36.702Z,14.45
2023-03-24T19:46:04.706Z,14.38
2023-03-24T19:48:31.419Z,14.76
2023-03-24T19:50:58.153Z,14.77
2023-03-24T19:53:26.614Z,14.44
2023-03-24T19:55:57.362Z,14.36
2023-03-24T19:58:24.765Z,14.30
2023-03-24T20:00:52.272Z,14.32
2023-03-24T20:03:19.264Z,14.22
2023-03-24T20:05:46.229Z,14.34
2023-03-24T20:08:13.458Z,13.80
2023-03-24T20:10:40.369Z,13.77
2023-03-24T20:13:09.214Z,13.62
2023-03-24T20:15:36.311Z,13.54
2023-03-24T20:18:03.464Z,13.72
2023-03-24T20:20:30.563Z,13.73
2023-03-24T20:23:00.728Z,13.64
2023-03-24T20:25:28.730Z,13.78
2023-03-24T20:27:55.883Z,13.94
2023-03-24T20:30:24.124Z,14.25
2023-03-24T20:32:54.810Z,14.52
2023-03-24T20:35:22.472Z,14.32
2023-03-24T20:37:49.264Z,14.17
2023-03-24T20:40:16.677Z,13.82
2023-03-24T20:42:43.332Z,13.65
2023-03-24T20:45:11.536Z,13.70
2023-03-24T20:47:38.736Z,13.57
2023-03-24T20:50:06.489Z,13.53
2023-03-24T20:52:35.088Z,13.89
2023-03-24T20:55:05.720Z,13.91
2023-03-24T20:57:33.587Z,13.74
2023-03-24T21:00:00.610Z,13.29
2023-03-24T21:02:31.686Z,13.53
2023-03-24T21:04:58.607Z,13.50
2023-03-24T21:07:26.506Z,13.79
2023-03-24T21:09:53.532Z,13.81
2023-03-24T21:12:21.903Z,13.34
2023-03-24T21:14:49.038Z,13.24
2023-03-24T21:17:18.721Z,12.84
2023-03-24T21:19:46.798Z,12.93
2023-03-24T21:22:15.256Z,12.51
2023-03-24T21:24:48.462Z,12.56
2023-03-24T21:27:16.036Z,12.45
2023-03-24T21:29:42.801Z,12.51
2023-03-24T21:32:10.490Z,12.44
2023-03-24T21:34:37.491Z,12.34
2023-03-24T21:37:04.115Z,12.29
2023-03-24T21:39:30.852Z,12.32
2023-03-24T21:41:57.617Z,12.29
2023-03-24T21:44:24.922Z,12.26
2023-03-24T21:46:51.554Z,12.33
2023-03-24T21:49:19.101Z,12.20
2023-03-24T21:51:46.655Z,12.21
2023-03-24T21:54:14.906Z,12.19
2023-03-24T21:56:42.008Z,12.05
2023-03-24T21:59:09.906Z,12.10
2023-03-24T22:01:36.930Z,12.15
2023-03-24T22:04:04.640Z,12.28
2023-03-24T22:06:37.302Z,12.43
2023-03-24T22:09:10.228Z,12.36
2023-03-24T22:11:42.530Z,12.36
2023-03-24T22:14:09.553Z,12.43
2023-03-24T22:16:36.671Z,12.55
2023-03-24T22:19:03.468Z,12.46
2023-03-24T22:21:30.080Z,12.65
2023-03-24T22:23:56.890Z,12.65
2023-03-24T22:26:23.700Z,12.85
2023-03-24T22:28:50.784Z,12.94
2023-03-24T22:31:17.732Z,12.62
2023-03-24T22:33:44.786Z,12.58
2023-03-24T22:36:11.860Z,12.59
2023-03-24T22:38:38.965Z,12.54
2023-03-24T22:41:07.808Z,12.35
2023-03-24T22:43:35.718Z,12.31
2023-03-24T22:46:03.583Z,12.34
2023-03-24T22:48:32.914Z,12.10
2023-03-24T22:50:59.509Z,12.09
2023-03-24T22:53:26.236Z,12.16
2023-03-24T22:55:53.188Z,12.28
2023-03-24T22:58:20.330Z,12.09
2023-03-24T23:00:48.944Z,11.92
2023-03-24T23:03:16.575Z,11.80
2023-03-24T23:05:45.298Z,11.78
2023-03-24T23:08:14.244Z,11.80
2023-03-24T23:10:43.244Z,11.89
2023-03-24T23:13:11.750Z,11.86
2023-03-24T23:15:39.605Z,11.78
2023-03-24T23:18:06.241Z,11.85
2023-03-24T23:20:33.140Z,11.85
2023-03-24T23:23:01.137Z,11.84
2023-03-24T23:25:31.079Z,11.53
2023-03-24T23:27:58.252Z,11.59
2023-03-24T23:30:25.267Z,11.46
2023-03-24T23:32:52.206Z,11.35
2023-03-24T23:35:19.004Z,11.29
2023-03-24T23:37:46.460Z,11.14
2023-03-24T23:40:15.464Z,11.10
2023-03-24T23:42:47.833Z,11.14
2023-03-24T23:45:19.809Z,11.23
2023-03-24T23:47:50.160Z,11.25
2023-03-24T23:50:18.574Z,11.24
2023-03-24T23:52:45.370Z,11.27
2023-03-24T23:55:17.800Z,11.23
2023-03-24T23:57:45.528Z,11.23
